sensor_id;sensor_type;location;lat;lon;timestamp;temperature;humidity
11047;DHT22;5576;50.008;10.596;2022-12-18T00:03:46;-7.40;99.90
11047;DHT22;5576;50.008;10.596;2022-12-18T00:08:41;-7.80;99.90
11047;DHT22;5576;50.008;10.596;2022-12-18T00:11:08;-8.20;99.90
11047;DHT22;5576;50.008;10.596;2022-12-18T00:13:36;-8.40;99.90
11047;DHT22;5576;50.008;10.596;2022-12-18T00:16:04;-8.10;99.90
11047;DHT22;5576;50.008;10.596;2022-12-18T00:18:30;-3.70;99.90
11047;DHT22;5576;50.008;10.596;2022-12-18T00:20:59;-8.30;99.90
11047;DHT22;5576;50.008;10.596;2022-12-18T00:23:26;-7.80;99.90
11047;DHT22;5576;50.008;10.596;2022-12-18T00:25:52;-7.80;99.90
11047;DHT22;5576;50.008;10.596;2022-12-18T00:28:17;-7.90;99.90
11047;DHT22;5576;50.008;10.596;2022-12-18T00:30:43;-8.10;99.90
11047;DHT22;5576;50.008;10.596;2022-12-18T00:33:09;-8.10;99.90
11047;DHT22;5576;50.008;10.596;2022-12-18T00:35:34;-7.80;99.90
11047;DHT22;5576;50.008;10.596;2022-12-18T00:38:00;-7.50;99.90
11047;DHT22;5576;50.008;10.596;2022-12-18T00:40:26;-7.40;99.90
11047;DHT22;5576;50.008;10.596;2022-12-18T00:42:53;-7.40;99.90
11047;DHT22;5576;50.008;10.596;2022-12-18T00:45:23;-7.30;99.90
11047;DHT22;5576;50.008;10.596;2022-12-18T00:47:50;-7.30;99.90
11047;DHT22;5576;50.008;10.596;2022-12-18T00:50:16;-4.60;99.90
11047;DHT22;5576;50.008;10.596;2022-12-18T00:52:42;-7.50;99.90
11047;DHT22;5576;50.008;10.596;2022-12-18T00:55:08;-11.20;99.90
11047;DHT22;5576;50.008;10.596;2022-12-18T00:57:34;-3.10;99.90
11047;DHT22;5576;50.008;10.596;2022-12-18T01:00:00;-6.50;99.90
11047;DHT22;5576;50.008;10.596;2022-12-18T01:02:26;-7.60;99.90
11047;DHT22;5576;50.008;10.596;2022-12-18T01:04:52;-10.00;99.90
11047;DHT22;5576;50.008;10.596;2022-12-18T01:07:19;-7.60;99.90
11047;DHT22;5576;50.008;10.596;2022-12-18T01:09:45;-6.50;99.90
11047;DHT22;5576;50.008;10.596;2022-12-18T01:12:11;-6.40;99.90
11047;DHT22;5576;50.008;10.596;2022-12-18T01:14:36;-7.90;99.90
11047;DHT22;5576;50.008;10.596;2022-12-18T01:17:03;-7.80;99.90
11047;DHT22;5576;50.008;10.596;2022-12-18T01:19:32;-7.70;99.90
11047;DHT22;5576;50.008;10.596;2022-12-18T01:21:58;-7.70;99.90
11047;DHT22;5576;50.008;10.596;2022-12-18T01:24:24;-7.80;99.90
11047;DHT22;5576;50.008;10.596;2022-12-18T01:26:49;-7.70;99.90
11047;DHT22;5576;50.008;10.596;2022-12-18T01:29:15;-3.30;99.90
11047;DHT22;5576;50.008;10.596;2022-12-18T01:31:41;-7.90;99.90
11047;DHT22;5576;50.008;10.596;2022-12-18T01:34:07;-8.00;99.90
11047;DHT22;5576;50.008;10.596;2022-12-18T01:36:36;-8.00;99.90
11047;DHT22;5576;50.008;10.596;2022-12-18T01:39:06;-8.10;99.90
11047;DHT22;5576;50.008;10.596;2022-12-18T01:41:33;-7.80;99.90
11047;DHT22;5576;50.008;10.596;2022-12-18T01:47:30;-4.20;99.90
11047;DHT22;5576;50.008;10.596;2022-12-18T01:49:59;-8.30;99.90
11047;DHT22;5576;50.008;10.596;2022-12-18T01:52:29;-8.30;99.90
11047;DHT22;5576;50.008;10.596;2022-12-18T01:54:56;-8.20;99.90
11047;DHT22;5576;50.008;10.596;2022-12-18T01:57:23;-8.20;99.90
11047;DHT22;5576;50.008;10.596;2022-12-18T01:59:52;-8.00;99.90
11047;DHT22;5576;50.008;10.596;2022-12-18T02:02:20;-8.00;99.90
11047;DHT22;5576;50.008;10.596;2022-12-18T02:04:46;-8.20;99.90
11047;DHT22;5576;50.008;10.596;2022-12-18T02:07:17;-4.40;99.90
11047;DHT22;5576;50.008;10.596;2022-12-18T02:09:50;-8.70;99.90
11047;DHT22;5576;50.008;10.596;2022-12-18T02:12:20;-5.10;99.90
11047;DHT22;5576;50.008;10.596;2022-12-18T02:14:55;-8.60;99.90
11047;DHT22;5576;50.008;10.596;2022-12-18T02:20:20;-8.20;99.90
11047;DHT22;5576;50.008;10.596;2022-12-18T02:23:12;-8.20;99.90
11047;DHT22;5576;50.008;10.596;2022-12-18T02:26:05;-8.20;99.90
11047;DHT22;5576;50.008;10.596;2022-12-18T02:28:40;-8.20;99.90
11047;DHT22;5576;50.008;10.596;2022-12-18T02:31:11;-8.30;99.90
11047;DHT22;5576;50.008;10.596;2022-12-18T02:33:37;-8.10;99.90
11047;DHT22;5576;50.008;10.596;2022-12-18T02:36:05;-8.10;99.90
11047;DHT22;5576;50.008;10.596;2022-12-18T02:38:33;-8.10;99.90
11047;DHT22;5576;50.008;10.596;2022-12-18T02:41:07;-8.10;99.90
11047;DHT22;5576;50.008;10.596;2022-12-18T02:43:34;-8.10;99.90
11047;DHT22;5576;50.008;10.596;2022-12-18T02:46:30;-7.00;99.90
11047;DHT22;5576;50.008;10.596;2022-12-18T02:49:09;-8.10;99.90
11047;DHT22;5576;50.008;10.596;2022-12-18T02:51:46;-8.20;99.90
11047;DHT22;5576;50.008;10.596;2022-12-18T02:54:23;-8.20;99.90
11047;DHT22;5576;50.008;10.596;2022-12-18T02:56:54;-8.20;99.90
11047;DHT22;5576;50.008;10.596;2022-12-18T02:59:31;-8.30;99.90
11047;DHT22;5576;50.008;10.596;2022-12-18T03:02:09;-8.30;99.90
11047;DHT22;5576;50.008;10.596;2022-12-18T03:04:49;-8.40;99.90
11047;DHT22;5576;50.008;10.596;2022-12-18T03:07:21;-4.30;99.90
11047;DHT22;5576;50.008;10.596;2022-12-18T03:09:54;-7.00;99.90
11047;DHT22;5576;50.008;10.596;2022-12-18T03:12:30;-8.50;99.90
11047;DHT22;5576;50.008;10.596;2022-12-18T03:15:21;-8.40;99.90
11047;DHT22;5576;50.008;10.596;2022-12-18T03:17:59;-8.50;99.90
11047;DHT22;5576;50.008;10.596;2022-12-18T03:20:31;-8.60;99.90
11047;DHT22;5576;50.008;10.596;2022-12-18T03:23:04;-8.60;99.90
11047;DHT22;5576;50.008;10.596;2022-12-18T03:25:33;-8.30;99.90
11047;DHT22;5576;50.008;10.596;2022-12-18T03:28:02;-8.30;99.90
11047;DHT22;5576;50.008;10.596;2022-12-18T03:30:33;-8.40;99.90
11047;DHT22;5576;50.008;10.596;2022-12-18T03:33:28;-8.30;99.90
11047;DHT22;5576;50.008;10.596;2022-12-18T03:35:57;-8.30;99.90
11047;DHT22;5576;50.008;10.596;2022-12-18T03:38:23;-8.30;99.90
11047;DHT22;5576;50.008;10.596;2022-12-18T03:41:10;-8.40;99.90
11047;DHT22;5576;50.008;10.596;2022-12-18T03:43:52;-8.50;99.90
11047;DHT22;5576;50.008;10.596;2022-12-18T03:46:36;-5.20;99.90
11047;DHT22;5576;50.008;10.596;2022-12-18T03:49:13;-8.50;99.90
11047;DHT22;5576;50.008;10.596;2022-12-18T03:51:52;-4.60;99.90
11047;DHT22;5576;50.008;10.596;2022-12-18T03:54:18;-8.70;99.90
11047;DHT22;5576;50.008;10.596;2022-12-18T03:56:59;-8.60;99.90
11047;DHT22;5576;50.008;10.596;2022-12-18T03:59:29;-8.50;99.90
11047;DHT22;5576;50.008;10.596;2022-12-18T04:01:57;-6.90;99.90
11047;DHT22;5576;50.008;10.596;2022-12-18T04:04:25;-10.40;99.90
11047;DHT22;5576;50.008;10.596;2022-12-18T04:06:53;-8.50;99.90
11047;DHT22;5576;50.008;10.596;2022-12-18T04:09:19;-8.80;99.90
11047;DHT22;5576;50.008;10.596;2022-12-18T04:11:47;-9.10;99.90
11047;DHT22;5576;50.008;10.596;2022-12-18T04:14:15;-5.30;99.90
11047;DHT22;5576;50.008;10.596;2022-12-18T04:16:41;-9.10;99.90
11047;DHT22;5576;50.008;10.596;2022-12-18T04:19:10;-9.00;99.90
11047;DHT22;5576;50.008;10.596;2022-12-18T04:21:39;-8.90;99.90
11047;DHT22;5576;50.008;10.596;2022-12-18T04:24:06;-8.80;99.90
11047;DHT22;5576;50.008;10.596;2022-12-18T04:26:34;-6.50;99.90
11047;DHT22;5576;50.008;10.596;2022-12-18T04:29:10;-8.80;99.90
11047;DHT22;5576;50.008;10.596;2022-12-18T04:31:36;-9.00;99.90
11047;DHT22;5576;50.008;10.596;2022-12-18T04:34:03;-5.40;99.90
11047;DHT22;5576;50.008;10.596;2022-12-18T04:36:34;-9.10;99.90
11047;DHT22;5576;50.008;10.596;2022-12-18T04:39:00;-9.20;99.90
11047;DHT22;5576;50.008;10.596;2022-12-18T04:41:26;-9.20;99.90
11047;DHT22;5576;50.008;10.596;2022-12-18T04:43:53;-5.00;99.90
11047;DHT22;5576;50.008;10.596;2022-12-18T04:46:18;-9.10;99.90
11047;DHT22;5576;50.008;10.596;2022-12-18T04:48:46;-9.10;99.90
11047;DHT22;5576;50.008;10.596;2022-12-18T04:51:12;-9.10;99.90
11047;DHT22;5576;50.008;10.596;2022-12-18T04:53:38;-9.10;99.90
11047;DHT22;5576;50.008;10.596;2022-12-18T04:56:10;-8.90;99.90
11047;DHT22;5576;50.008;10.596;2022-12-18T04:58:36;-8.50;99.90
11047;DHT22;5576;50.008;10.596;2022-12-18T05:01:03;-8.30;99.90
11047;DHT22;5576;50.008;10.596;2022-12-18T05:03:29;-8.40;99.90
11047;DHT22;5576;50.008;10.596;2022-12-18T05:05:55;-8.30;99.90
11047;DHT22;5576;50.008;10.596;2022-12-18T05:08:21;-8.30;99.90
11047;DHT22;5576;50.008;10.596;2022-12-18T05:10:47;-7.00;99.90
11047;DHT22;5576;50.008;10.596;2022-12-18T05:13:13;-8.20;99.90
11047;DHT22;5576;50.008;10.596;2022-12-18T05:15:38;-8.10;99.90
11047;DHT22;5576;50.008;10.596;2022-12-18T05:18:04;-4.60;99.90
11047;DHT22;5576;50.008;10.596;2022-12-18T05:20:31;-7.80;99.90
11047;DHT22;5576;50.008;10.596;2022-12-18T05:22:56;-7.70;99.90
11047;DHT22;5576;50.008;10.596;2022-12-18T05:25:22;-4.70;99.90
11047;DHT22;5576;50.008;10.596;2022-12-18T05:27:48;-7.40;99.90
11047;DHT22;5576;50.008;10.596;2022-12-18T05:30:15;-7.50;99.90
11047;DHT22;5576;50.008;10.596;2022-12-18T05:32:41;-7.60;99.90
11047;DHT22;5576;50.008;10.596;2022-12-18T05:35:09;-7.70;99.90
11047;DHT22;5576;50.008;10.596;2022-12-18T05:37:35;-7.80;99.90
11047;DHT22;5576;50.008;10.596;2022-12-18T05:40:02;-8.00;99.90
11047;DHT22;5576;50.008;10.596;2022-12-18T05:42:28;-8.10;99.90
11047;DHT22;5576;50.008;10.596;2022-12-18T05:44:54;-7.40;99.90
11047;DHT22;5576;50.008;10.596;2022-12-18T05:47:20;-5.10;99.90
11047;DHT22;5576;50.008;10.596;2022-12-18T05:49:45;-8.30;99.90
11047;DHT22;5576;50.008;10.596;2022-12-18T05:52:11;-8.40;99.90
11047;DHT22;5576;50.008;10.596;2022-12-18T05:57:03;-8.60;99.90
11047;DHT22;5576;50.008;10.596;2022-12-18T05:59:29;-8.50;99.90
11047;DHT22;5576;50.008;10.596;2022-12-18T06:01:54;-8.70;99.90
11047;DHT22;5576;50.008;10.596;2022-12-18T06:04:20;-8.50;99.90
11047;DHT22;5576;50.008;10.596;2022-12-18T06:06:46;-4.50;99.90
11047;DHT22;5576;50.008;10.596;2022-12-18T06:09:11;-8.40;99.90
11047;DHT22;5576;50.008;10.596;2022-12-18T06:11:37;-8.30;99.90
11047;DHT22;5576;50.008;10.596;2022-12-18T06:14:04;-8.30;99.90
11047;DHT22;5576;50.008;10.596;2022-12-18T06:16:31;-8.20;99.90
11047;DHT22;5576;50.008;10.596;2022-12-18T06:18:58;-8.10;99.90
11047;DHT22;5576;50.008;10.596;2022-12-18T06:21:24;-8.00;99.90
11047;DHT22;5576;50.008;10.596;2022-12-18T06:23:50;-6.20;99.90
11047;DHT22;5576;50.008;10.596;2022-12-18T06:26:16;-7.90;99.90
11047;DHT22;5576;50.008;10.596;2022-12-18T06:28:42;-4.50;99.90
11047;DHT22;5576;50.008;10.596;2022-12-18T06:31:09;-9.40;99.90
11047;DHT22;5576;50.008;10.596;2022-12-18T06:33:35;-7.70;99.90
11047;DHT22;5576;50.008;10.596;2022-12-18T06:36:04;-7.10;99.90
11047;DHT22;5576;50.008;10.596;2022-12-18T06:38:32;-7.90;99.90
11047;DHT22;5576;50.008;10.596;2022-12-18T06:40:58;-7.70;99.90
11047;DHT22;5576;50.008;10.596;2022-12-18T06:43:24;-7.80;99.90
11047;DHT22;5576;50.008;10.596;2022-12-18T06:45:49;-7.70;99.90
11047;DHT22;5576;50.008;10.596;2022-12-18T06:48:19;-7.70;99.90
11047;DHT22;5576;50.008;10.596;2022-12-18T06:50:45;-7.40;99.90
11047;DHT22;5576;50.008;10.596;2022-12-18T06:53:11;-6.70;99.90
11047;DHT22;5576;50.008;10.596;2022-12-18T06:55:37;-7.50;99.90
11047;DHT22;5576;50.008;10.596;2022-12-18T06:58:03;-7.50;99.90
11047;DHT22;5576;50.008;10.596;2022-12-18T07:00:28;-7.50;99.90
11047;DHT22;5576;50.008;10.596;2022-12-18T07:02:54;-3.70;99.90
11047;DHT22;5576;50.008;10.596;2022-12-18T07:05:19;-7.60;99.90
11047;DHT22;5576;50.008;10.596;2022-12-18T07:07:45;-7.50;99.90
11047;DHT22;5576;50.008;10.596;2022-12-18T07:10:11;-7.60;99.90
11047;DHT22;5576;50.008;10.596;2022-12-18T07:15:03;-7.50;99.90
11047;DHT22;5576;50.008;10.596;2022-12-18T07:17:29;-7.30;99.90
11047;DHT22;5576;50.008;10.596;2022-12-18T07:19:55;-3.60;99.90
11047;DHT22;5576;50.008;10.596;2022-12-18T07:22:21;-7.40;99.90
11047;DHT22;5576;50.008;10.596;2022-12-18T07:24:46;-7.20;99.90
11047;DHT22;5576;50.008;10.596;2022-12-18T07:27:12;-7.20;99.90
11047;DHT22;5576;50.008;10.596;2022-12-18T07:29:38;-7.10;99.90
11047;DHT22;5576;50.008;10.596;2022-12-18T07:32:04;-7.10;99.90
11047;DHT22;5576;50.008;10.596;2022-12-18T07:34:29;-7.10;99.90
11047;DHT22;5576;50.008;10.596;2022-12-18T07:36:55;-7.00;99.90
11047;DHT22;5576;50.008;10.596;2022-12-18T07:39:21;-7.00;99.90
11047;DHT22;5576;50.008;10.596;2022-12-18T07:41:46;-7.00;99.90
11047;DHT22;5576;50.008;10.596;2022-12-18T07:44:32;-7.00;99.90
11047;DHT22;5576;50.008;10.596;2022-12-18T07:46:58;-6.90;99.90
11047;DHT22;5576;50.008;10.596;2022-12-18T07:49:23;-6.70;99.90
11047;DHT22;5576;50.008;10.596;2022-12-18T07:51:49;-6.70;99.90
11047;DHT22;5576;50.008;10.596;2022-12-18T07:54:15;-6.70;99.90
11047;DHT22;5576;50.008;10.596;2022-12-18T07:56:40;-6.60;99.90
11047;DHT22;5576;50.008;10.596;2022-12-18T07:59:06;-6.50;99.90
11047;DHT22;5576;50.008;10.596;2022-12-18T08:01:33;-6.50;99.90
11047;DHT22;5576;50.008;10.596;2022-12-18T08:03:58;-4.70;99.90
11047;DHT22;5576;50.008;10.596;2022-12-18T08:06:24;-6.50;99.90
11047;DHT22;5576;50.008;10.596;2022-12-18T08:08:53;-6.40;99.90
11047;DHT22;5576;50.008;10.596;2022-12-18T08:11:19;-6.40;99.90
11047;DHT22;5576;50.008;10.596;2022-12-18T08:13:45;-6.40;99.90
11047;DHT22;5576;50.008;10.596;2022-12-18T08:16:10;-6.30;99.90
11047;DHT22;5576;50.008;10.596;2022-12-18T08:18:37;-6.40;99.90
11047;DHT22;5576;50.008;10.596;2022-12-18T08:21:12;-6.30;99.90
11047;DHT22;5576;50.008;10.596;2022-12-18T08:23:38;-5.80;99.90
11047;DHT22;5576;50.008;10.596;2022-12-18T08:26:04;-5.80;99.90
11047;DHT22;5576;50.008;10.596;2022-12-18T08:28:30;-6.30;99.90
11047;DHT22;5576;50.008;10.596;2022-12-18T08:30:55;-8.30;99.90
11047;DHT22;5576;50.008;10.596;2022-12-18T08:33:21;-6.30;99.90
11047;DHT22;5576;50.008;10.596;2022-12-18T08:35:47;-6.30;99.90
11047;DHT22;5576;50.008;10.596;2022-12-18T08:38:13;-9.00;99.90
11047;DHT22;5576;50.008;10.596;2022-12-18T08:40:38;-6.20;99.90
11047;DHT22;5576;50.008;10.596;2022-12-18T08:43:04;-1.60;99.90
11047;DHT22;5576;50.008;10.596;2022-12-18T08:45:49;-6.10;99.90
11047;DHT22;5576;50.008;10.596;2022-12-18T08:48:15;-6.00;99.90
11047;DHT22;5576;50.008;10.596;2022-12-18T08:50:41;-6.00;99.90
11047;DHT22;5576;50.008;10.596;2022-12-18T08:53:06;-5.90;99.90
11047;DHT22;5576;50.008;10.596;2022-12-18T08:55:32;-5.90;99.90
11047;DHT22;5576;50.008;10.596;2022-12-18T08:57:58;-5.90;99.90
11047;DHT22;5576;50.008;10.596;2022-12-18T09:00:24;-5.80;99.90
11047;DHT22;5576;50.008;10.596;2022-12-18T09:02:49;-5.70;99.90
11047;DHT22;5576;50.008;10.596;2022-12-18T09:05:15;-6.10;99.90
11047;DHT22;5576;50.008;10.596;2022-12-18T09:07:41;-5.70;99.90
11047;DHT22;5576;50.008;10.596;2022-12-18T09:10:07;-5.70;99.90
11047;DHT22;5576;50.008;10.596;2022-12-18T09:12:32;-7.50;99.90
11047;DHT22;5576;50.008;10.596;2022-12-18T09:14:58;-5.80;99.90
11047;DHT22;5576;50.008;10.596;2022-12-18T09:17:24;-5.70;99.90
11047;DHT22;5576;50.008;10.596;2022-12-18T09:19:50;-5.70;99.90
11047;DHT22;5576;50.008;10.596;2022-12-18T09:22:16;-5.70;99.90
11047;DHT22;5576;50.008;10.596;2022-12-18T09:24:41;-5.70;99.90
11047;DHT22;5576;50.008;10.596;2022-12-18T09:27:07;-2.20;99.90
11047;DHT22;5576;50.008;10.596;2022-12-18T09:29:33;-5.80;99.90
11047;DHT22;5576;50.008;10.596;2022-12-18T09:31:58;-5.70;99.90
11047;DHT22;5576;50.008;10.596;2022-12-18T09:34:24;-5.80;99.90
11047;DHT22;5576;50.008;10.596;2022-12-18T09:36:50;-5.70;99.90
11047;DHT22;5576;50.008;10.596;2022-12-18T09:39:16;-6.70;99.90
11047;DHT22;5576;50.008;10.596;2022-12-18T09:41:46;-5.60;99.90
11047;DHT22;5576;50.008;10.596;2022-12-18T09:44:33;-2.50;99.90
11047;DHT22;5576;50.008;10.596;2022-12-18T09:47:25;-5.40;99.90
11047;DHT22;5576;50.008;10.596;2022-12-18T09:49:56;-5.30;99.90
11047;DHT22;5576;50.008;10.596;2022-12-18T09:52:44;-1.30;99.90
11047;DHT22;5576;50.008;10.596;2022-12-18T09:55:33;-5.20;99.90
11047;DHT22;5576;50.008;10.596;2022-12-18T10:00:31;-5.10;99.90
11047;DHT22;5576;50.008;10.596;2022-12-18T10:03:02;-5.00;99.90
11047;DHT22;5576;50.008;10.596;2022-12-18T10:05:38;-4.40;99.90
11047;DHT22;5576;50.008;10.596;2022-12-18T10:08:25;-5.00;99.90
11047;DHT22;5576;50.008;10.596;2022-12-18T10:11:11;-5.00;99.90
11047;DHT22;5576;50.008;10.596;2022-12-18T10:13:44;-1.50;99.90
11047;DHT22;5576;50.008;10.596;2022-12-18T10:16:16;-8.00;99.90
11047;DHT22;5576;50.008;10.596;2022-12-18T10:19:14;-4.80;99.90
11047;DHT22;5576;50.008;10.596;2022-12-18T10:27:18;-3.80;99.90
11047;DHT22;5576;50.008;10.596;2022-12-18T10:29:47;-4.70;99.90
11047;DHT22;5576;50.008;10.596;2022-12-18T10:32:16;-4.70;99.90
11047;DHT22;5576;50.008;10.596;2022-12-18T10:34:45;-4.70;99.90
11047;DHT22;5576;50.008;10.596;2022-12-18T10:37:17;-7.30;99.90
11047;DHT22;5576;50.008;10.596;2022-12-18T10:39:43;-0.80;99.90
11047;DHT22;5576;50.008;10.596;2022-12-18T10:42:19;-8.30;99.90
11047;DHT22;5576;50.008;10.596;2022-12-18T10:44:45;-4.60;99.90
11047;DHT22;5576;50.008;10.596;2022-12-18T10:47:14;-4.50;99.90
11047;DHT22;5576;50.008;10.596;2022-12-18T10:49:49;-4.50;99.90
11047;DHT22;5576;50.008;10.596;2022-12-18T10:52:18;-4.50;99.90
11047;DHT22;5576;50.008;10.596;2022-12-18T10:54:50;-2.90;99.90
11047;DHT22;5576;50.008;10.596;2022-12-18T10:59:54;-4.30;99.90
11047;DHT22;5576;50.008;10.596;2022-12-18T11:02:34;-4.30;99.90
11047;DHT22;5576;50.008;10.596;2022-12-18T11:05:00;-4.30;99.90
11047;DHT22;5576;50.008;10.596;2022-12-18T11:07:47;-4.20;99.90
11047;DHT22;5576;50.008;10.596;2022-12-18T11:10:17;-4.10;99.90
11047;DHT22;5576;50.008;10.596;2022-12-18T11:12:43;-3.80;99.90
11047;DHT22;5576;50.008;10.596;2022-12-18T11:15:20;-4.10;99.90
11047;DHT22;5576;50.008;10.596;2022-12-18T11:17:48;-2.50;99.90
11047;DHT22;5576;50.008;10.596;2022-12-18T11:20:24;-3.90;99.90
11047;DHT22;5576;50.008;10.596;2022-12-18T11:22:57;-3.80;99.90
11047;DHT22;5576;50.008;10.596;2022-12-18T11:25:24;-1.40;99.90
11047;DHT22;5576;50.008;10.596;2022-12-18T11:27:53;-3.80;99.90
11047;DHT22;5576;50.008;10.596;2022-12-18T11:30:24;-3.80;99.90
11047;DHT22;5576;50.008;10.596;2022-12-18T11:33:11;-3.70;99.90
11047;DHT22;5576;50.008;10.596;2022-12-18T11:35:51;-3.70;99.90
11047;DHT22;5576;50.008;10.596;2022-12-18T11:38:36;-3.60;99.90
11047;DHT22;5576;50.008;10.596;2022-12-18T11:41:11;-3.60;99.90
11047;DHT22;5576;50.008;10.596;2022-12-18T11:43:48;-3.60;99.90
11047;DHT22;5576;50.008;10.596;2022-12-18T11:46:23;-3.70;99.90
11047;DHT22;5576;50.008;10.596;2022-12-18T11:48:54;-3.60;99.90
11047;DHT22;5576;50.008;10.596;2022-12-18T11:51:45;-3.70;99.90
11047;DHT22;5576;50.008;10.596;2022-12-18T11:54:15;-3.60;99.90
11047;DHT22;5576;50.008;10.596;2022-12-18T12:04:50;-3.60;99.90
11047;DHT22;5576;50.008;10.596;2022-12-18T12:07:32;-3.60;99.90
11047;DHT22;5576;50.008;10.596;2022-12-18T12:29:23;-3.10;99.90
11047;DHT22;5576;50.008;10.596;2022-12-18T12:31:55;-2.90;99.90
11047;DHT22;5576;50.008;10.596;2022-12-18T12:34:32;-2.90;99.90
11047;DHT22;5576;50.008;10.596;2022-12-18T12:37:16;-2.90;99.90
11047;DHT22;5576;50.008;10.596;2022-12-18T12:42:38;-2.50;99.90
11047;DHT22;5576;50.008;10.596;2022-12-18T12:45:54;-2.80;99.90
11047;DHT22;5576;50.008;10.596;2022-12-18T12:51:19;1.30;99.90
11047;DHT22;5576;50.008;10.596;2022-12-18T12:53:46;-2.50;99.90
11047;DHT22;5576;50.008;10.596;2022-12-18T12:56:15;-2.30;99.90
11047;DHT22;5576;50.008;10.596;2022-12-18T13:01:25;-2.30;99.90
11047;DHT22;5576;50.008;10.596;2022-12-18T13:04:06;1.70;99.90
11047;DHT22;5576;50.008;10.596;2022-12-18T13:06:39;-2.40;99.90
11047;DHT22;5576;50.008;10.596;2022-12-18T13:09:07;-6.30;99.90
11047;DHT22;5576;50.008;10.596;2022-12-18T13:11:42;-2.50;99.90
11047;DHT22;5576;50.008;10.596;2022-12-18T13:14:31;-2.50;99.90
11047;DHT22;5576;50.008;10.596;2022-12-18T13:19:44;-2.40;99.90
11047;DHT22;5576;50.008;10.596;2022-12-18T13:22:30;-2.40;99.90
11047;DHT22;5576;50.008;10.596;2022-12-18T13:24:57;-2.50;99.90
11047;DHT22;5576;50.008;10.596;2022-12-18T13:38:34;-4.50;99.90
11047;DHT22;5576;50.008;10.596;2022-12-18T13:41:02;-2.50;99.90
11047;DHT22;5576;50.008;10.596;2022-12-18T13:46:02;-2.50;99.90
11047;DHT22;5576;50.008;10.596;2022-12-18T13:48:33;-2.60;99.90
11047;DHT22;5576;50.008;10.596;2022-12-18T13:51:04;-2.70;99.90
11047;DHT22;5576;50.008;10.596;2022-12-18T13:53:35;-2.20;99.90
11047;DHT22;5576;50.008;10.596;2022-12-18T13:56:03;-5.80;99.90
11047;DHT22;5576;50.008;10.596;2022-12-18T13:58:29;0.00;99.90
11047;DHT22;5576;50.008;10.596;2022-12-18T14:00:55;-2.80;99.90
11047;DHT22;5576;50.008;10.596;2022-12-18T14:03:24;-2.80;99.90
11047;DHT22;5576;50.008;10.596;2022-12-18T14:05:54;-2.60;99.90
11047;DHT22;5576;50.008;10.596;2022-12-18T14:08:20;-2.70;99.90
11047;DHT22;5576;50.008;10.596;2022-12-18T14:10:48;-2.80;99.90
11047;DHT22;5576;50.008;10.596;2022-12-18T14:13:26;0.60;99.90
11047;DHT22;5576;50.008;10.596;2022-12-18T14:15:54;0.60;99.90
11047;DHT22;5576;50.008;10.596;2022-12-18T14:18:43;-2.80;99.90
11047;DHT22;5576;50.008;10.596;2022-12-18T14:21:23;-2.90;99.90
11047;DHT22;5576;50.008;10.596;2022-12-18T14:24:12;-2.90;99.90
11047;DHT22;5576;50.008;10.596;2022-12-18T14:26:39;-2.90;99.90
11047;DHT22;5576;50.008;10.596;2022-12-18T14:29:25;-3.00;99.90
11047;DHT22;5576;50.008;10.596;2022-12-18T14:34:36;-0.50;99.90
11047;DHT22;5576;50.008;10.596;2022-12-18T14:37:03;-0.10;99.90
11047;DHT22;5576;50.008;10.596;2022-12-18T14:39:29;-2.90;99.90
11047;DHT22;5576;50.008;10.596;2022-12-18T14:41:54;-2.90;99.90
11047;DHT22;5576;50.008;10.596;2022-12-18T14:44:20;-5.60;99.90
11047;DHT22;5576;50.008;10.596;2022-12-18T14:46:48;-2.90;99.90
11047;DHT22;5576;50.008;10.596;2022-12-18T14:49:24;-3.10;99.90
11047;DHT22;5576;50.008;10.596;2022-12-18T14:51:57;-3.30;99.90
11047;DHT22;5576;50.008;10.596;2022-12-18T14:54:24;-3.40;99.90
11047;DHT22;5576;50.008;10.596;2022-12-18T14:56:59;-3.30;99.90
11047;DHT22;5576;50.008;10.596;2022-12-18T14:59:27;-3.20;99.90
11047;DHT22;5576;50.008;10.596;2022-12-18T15:01:59;-3.20;99.90
11047;DHT22;5576;50.008;10.596;2022-12-18T15:04:29;-3.20;99.90
11047;DHT22;5576;50.008;10.596;2022-12-18T15:07:21;-6.90;99.90
11047;DHT22;5576;50.008;10.596;2022-12-18T15:12:40;-3.30;99.90
11047;DHT22;5576;50.008;10.596;2022-12-18T15:18:04;-3.20;99.90
11047;DHT22;5576;50.008;10.596;2022-12-18T15:20:33;-3.30;99.90
11047;DHT22;5576;50.008;10.596;2022-12-18T15:23:04;-2.10;99.90
11047;DHT22;5576;50.008;10.596;2022-12-18T15:25:32;-3.30;99.90
11047;DHT22;5576;50.008;10.596;2022-12-18T15:27:59;-3.40;99.90
11047;DHT22;5576;50.008;10.596;2022-12-18T15:30:25;-3.30;99.90
11047;DHT22;5576;50.008;10.596;2022-12-18T15:32:55;-0.60;99.90
11047;DHT22;5576;50.008;10.596;2022-12-18T15:35:38;-3.60;99.90
11047;DHT22;5576;50.008;10.596;2022-12-18T15:38:04;-3.60;99.90
11047;DHT22;5576;50.008;10.596;2022-12-18T15:40:29;-3.80;99.90
11047;DHT22;5576;50.008;10.596;2022-12-18T15:42:55;-3.80;99.90
11047;DHT22;5576;50.008;10.596;2022-12-18T15:45:44;-3.80;99.90
11047;DHT22;5576;50.008;10.596;2022-12-18T15:48:19;-2.60;99.90
11047;DHT22;5576;50.008;10.596;2022-12-18T15:50:45;-3.80;99.90
11047;DHT22;5576;50.008;10.596;2022-12-18T15:53:11;-3.80;99.90
11047;DHT22;5576;50.008;10.596;2022-12-18T15:55:37;-3.90;99.90
11047;DHT22;5576;50.008;10.596;2022-12-18T15:58:23;-3.90;99.90
11047;DHT22;5576;50.008;10.596;2022-12-18T16:00:49;-3.80;99.90
11047;DHT22;5576;50.008;10.596;2022-12-18T16:03:14;-3.80;99.90
11047;DHT22;5576;50.008;10.596;2022-12-18T16:05:40;-3.80;99.90
11047;DHT22;5576;50.008;10.596;2022-12-18T16:08:06;-4.60;99.90
11047;DHT22;5576;50.008;10.596;2022-12-18T16:10:31;-3.80;99.90
11047;DHT22;5576;50.008;10.596;2022-12-18T16:12:57;-5.80;99.90
11047;DHT22;5576;50.008;10.596;2022-12-18T16:15:23;-3.90;99.90
11047;DHT22;5576;50.008;10.596;2022-12-18T16:17:49;-3.90;99.90
11047;DHT22;5576;50.008;10.596;2022-12-18T16:20:16;-3.90;99.90
11047;DHT22;5576;50.008;10.596;2022-12-18T16:22:43;-4.00;99.90
11047;DHT22;5576;50.008;10.596;2022-12-18T16:25:27;-4.10;99.90
11047;DHT22;5576;50.008;10.596;2022-12-18T16:27:55;-4.00;99.90
11047;DHT22;5576;50.008;10.596;2022-12-18T16:30:23;-7.10;99.90
11047;DHT22;5576;50.008;10.596;2022-12-18T16:32:49;-6.90;99.90
11047;DHT22;5576;50.008;10.596;2022-12-18T16:35:16;-4.00;99.90
11047;DHT22;5576;50.008;10.596;2022-12-18T16:37:42;-3.50;99.90
11047;DHT22;5576;50.008;10.596;2022-12-18T16:40:11;-3.90;99.90
11047;DHT22;5576;50.008;10.596;2022-12-18T16:42:38;-3.90;99.90
11047;DHT22;5576;50.008;10.596;2022-12-18T16:45:06;-3.90;99.90
11047;DHT22;5576;50.008;10.596;2022-12-18T16:47:33;-4.10;99.90
11047;DHT22;5576;50.008;10.596;2022-12-18T16:49:59;-0.90;99.90
11047;DHT22;5576;50.008;10.596;2022-12-18T16:52:25;-4.00;99.90
11047;DHT22;5576;50.008;10.596;2022-12-18T16:54:51;-4.00;99.90
11047;DHT22;5576;50.008;10.596;2022-12-18T16:57:19;-3.90;99.90
11047;DHT22;5576;50.008;10.596;2022-12-18T16:59:45;-4.00;99.90
11047;DHT22;5576;50.008;10.596;2022-12-18T17:02:14;-4.00;99.90
11047;DHT22;5576;50.008;10.596;2022-12-18T17:04:40;-4.10;99.90
11047;DHT22;5576;50.008;10.596;2022-12-18T17:07:07;-4.10;99.90
11047;DHT22;5576;50.008;10.596;2022-12-18T17:09:33;-4.20;99.90
11047;DHT22;5576;50.008;10.596;2022-12-18T17:11:59;-4.00;99.90
11047;DHT22;5576;50.008;10.596;2022-12-18T17:14:25;-3.80;99.90